Portada
METAR-TAF:

METAR-TAF

Aeropuertos :

Dakar, Senegal

Aeropuerto Internacional de Dakar-Yoff/Léopold Sédar Senghor

latitud: 14-44N, longitud: 017-30W, altitud: 27 m

Observación

El informe se hizo hace 39 minutos, a las 12:30 UTC
Viento 8 kt del norte-noroeste, variando entre oeste y norte
Temperatura 32°C
Humedad 71%
Presión 1016 hPa
Visibilidad: 6000 m
Escasas nubes a una altura de 1300 ft

METAR: GOOY 171230Z 33008KT 280V360 6000 FEW013 32/26 Q1016 NOSIG

Hora: 13:09 (13:09 UTC)

Pronóstico

El informe se hizo hace 1 hora y 39 minutos, a las 11:30 UTC
Pronóstico válido del 17 a las 12 UTC al 18 a las 18 UTC
Viento 8 kt del oeste-noroeste
Visibilidad: 6000 m
Nubes dispersas a una altura de 1300 ft

TAF: GOOY 171130Z 1712/1818 30008KT 6000 SCT013

Observaciones y pronósticos meteorológicos de más de 4000 aeropuertos (mensajes METAR y TAF).

Los puntos amarillos y rojos representan las estaciones disponibles.

Ponga el ratón en el punto deseado para ver el nombre de la estación.

Haga clic para ver las observaciones y los pronósticos meteorológicos.

Para cambiar el mapa : haga clic en los botones verdes con una cruz de color negro para hacer un zoom, en el botón verde con un guión para alejar o en las flechas verdes para mapas adyacentes.


METAR-TAF: